Time;durP1;ratioP1;P1;durP2;ratioP2;P2;SDS_P1;SDS_P2;PMS_P1;PMS_P2;Temp;Humidity;BMP_temperature;BMP_pressure;BME280_temperature;BME280_humidity;BME280_pressure;Samples;Min_cycle;Max_cycle;Signal;HPM_P1;HPM_P2
2021/03/16 00:02:31;;;;;;;5.83;5.23;;;4.40;99.90;;;;;;5028782;28;20474;-79
2021/03/16 00:04:57;;;;;;;5.37;4.87;;;4.40;99.90;;;;;;5027454;28;20820;-79
2021/03/16 00:07:29;;;;;;;5.70;5.20;;;4.50;99.90;;;;;;5025715;28;20424;-79
2021/03/16 00:09:56;;;;;;;6.07;5.07;;;4.50;99.90;;;;;;5026359;28;20478;-78
2021/03/16 00:12:23;;;;;;;5.73;5.13;;;4.50;99.90;;;;;;5026350;28;20435;-79
2021/03/16 00:14:49;;;;;;;7.23;5.03;;;4.40;99.90;;;;;;5019826;28;20462;-79
2021/03/16 00:17:16;;;;;;;8.47;4.97;;;4.40;99.90;;;;;;5005982;28;20812;-80
2021/03/16 00:19:44;;;;;;;6.37;5.23;;;4.40;99.90;;;;;;5025095;28;20195;-80
2021/03/16 00:22:10;;;;;;;5.93;4.90;;;4.40;99.90;;;;;;5019119;28;20255;-79
2021/03/16 00:24:37;;;;;;;5.87;4.47;;;4.40;99.90;;;;;;5041856;22;20239;-77
2021/03/16 00:27:05;;;;;;;7.40;5.60;;;4.40;99.90;;;;;;4991856;28;20512;-77
2021/03/16 00:29:31;;;;;;;6.10;4.80;;;4.40;99.90;;;;;;4993678;28;20986;-78
2021/03/16 00:31:57;;;;;;;7.70;5.17;;;4.40;99.90;;;;;;4993752;28;20193;-76
2021/03/16 00:34:24;;;;;;;6.07;5.43;;;4.40;99.90;;;;;;4993395;28;20468;-77
2021/03/16 00:36:50;;;;;;;7.67;5.77;;;4.50;99.90;;;;;;4993058;28;20193;-78
2021/03/16 00:39:16;;;;;;;6.03;5.47;;;4.50;99.90;;;;;;4994616;28;20436;-78
2021/03/16 00:41:43;;;;;;;6.50;4.77;;;4.40;99.90;;;;;;4993878;28;20559;-77
2021/03/16 00:44:10;;;;;;;6.07;5.10;;;4.40;99.90;;;;;;4991610;28;20468;-77
2021/03/16 00:46:36;;;;;;;8.30;5.47;;;4.40;99.90;;;;;;4991538;28;20467;-78
2021/03/16 00:49:04;;;;;;;5.30;4.80;;;4.40;99.90;;;;;;5007977;28;20483;-77
2021/03/16 00:51:30;;;;;;;8.17;5.50;;;4.40;99.90;;;;;;4992749;28;20831;-77
2021/03/16 00:53:57;;;;;;;6.80;5.43;;;4.40;99.90;;;;;;4992468;28;20487;-76
2021/03/16 00:56:24;;;;;;;5.67;5.13;;;4.40;99.90;;;;;;4991240;28;20455;-76
2021/03/16 00:58:50;;;;;;;6.17;5.50;;;4.40;99.90;;;;;;4991539;28;20452;-78
2021/03/16 01:01:18;;;;;;;6.63;5.93;;;4.40;99.90;;;;;;4992693;28;20529;-77
2021/03/16 01:03:44;;;;;;;6.27;5.57;;;4.40;99.90;;;;;;4991188;28;20480;-76
2021/03/16 01:06:10;;;;;;;7.43;5.37;;;4.30;99.90;;;;;;4990302;28;20464;-78
2021/03/16 01:08:37;;;;;;;7.13;5.43;;;4.30;99.90;;;;;;4992607;28;20436;-77
2021/03/16 01:11:03;;;;;;;5.93;5.33;;;4.40;99.90;;;;;;4992468;28;20444;-77
2021/03/16 01:13:31;;;;;;;7.37;6.07;;;4.30;99.90;;;;;;4991424;28;20519;-78
2021/03/16 01:15:58;;;;;;;7.13;6.43;;;4.30;99.90;;;;;;4987757;28;20782;-78
2021/03/16 01:18:25;;;;;;;8.17;6.20;;;4.30;99.90;;;;;;5007667;28;20448;-77
2021/03/16 01:20:51;;;;;;;8.17;6.67;;;4.30;99.90;;;;;;4991314;28;20487;-77
2021/03/16 01:23:17;;;;;;;6.13;5.23;;;4.30;99.90;;;;;;4995323;28;20545;-76
2021/03/16 01:25:44;;;;;;;8.07;5.70;;;4.30;99.90;;;;;;5011798;28;20450;-78
2021/03/16 01:28:10;;;;;;;8.13;5.57;;;4.30;99.90;;;;;;5010752;28;20601;-76
2021/03/16 01:30:36;;;;;;;6.70;5.80;;;4.30;99.90;;;;;;5002441;28;20860;-76
2021/03/16 01:33:03;;;;;;;6.50;5.90;;;4.30;99.90;;;;;;5005159;28;20208;-77
2021/03/16 01:35:30;;;;;;;7.17;5.90;;;4.30;99.90;;;;;;4992139;28;20435;-76
2021/03/16 01:37:57;;;;;;;9.23;6.17;;;4.30;99.90;;;;;;4993941;28;20455;-77
2021/03/16 01:40:29;;;;;;;7.57;5.57;;;4.30;99.90;;;;;;5010500;28;20461;-77
2021/03/16 01:43:07;;;;;;;6.47;5.57;;;4.30;99.90;;;;;;4993936;28;20506;-78
2021/03/16 01:45:33;;;;;;;9.80;6.60;;;4.30;99.90;;;;;;4994161;28;20447;-76
2021/03/16 01:48:00;;;;;;;7.97;6.87;;;4.30;99.90;;;;;;5011730;28;20451;-77
2021/03/16 01:50:26;;;;;;;7.77;7.00;;;4.30;99.90;;;;;;4993942;28;20487;-77
2021/03/16 01:52:54;;;;;;;7.53;6.83;;;4.30;99.90;;;;;;4988308;28;20455;-77
2021/03/16 01:55:22;;;;;;;7.40;6.57;;;4.30;99.90;;;;;;5011322;28;20436;-77
2021/03/16 01:57:53;;;;;;;7.03;6.30;;;4.30;99.90;;;;;;5011666;28;20432;-77
2021/03/16 02:00:40;;;;;;;7.37;5.33;;;4.20;99.90;;;;;;5004786;28;20451;-77
2021/03/16 02:03:25;;;;;;;6.00;5.40;;;4.20;99.90;;;;;;5010416;28;20540;-78
2021/03/16 02:06:17;;;;;;;6.37;4.30;;;4.20;99.90;;;;;;5008807;28;20564;-76
2021/03/16 02:09:10;;;;;;;6.33;3.93;;;4.10;99.90;;;;;;5011908;28;20211;-77
2021/03/16 02:12:00;;;;;;;7.63;4.60;;;4.10;99.90;;;;;;5006371;28;20430;-77
2021/03/16 02:14:49;;;;;;;5.40;4.90;;;4.10;99.90;;;;;;4997904;28;20442;-77
2021/03/16 02:17:36;;;;;;;6.40;5.07;;;4.10;99.90;;;;;;4999721;28;20419;-77
2021/03/16 02:20:33;;;;;;;5.50;4.70;;;4.10;99.90;;;;;;5015574;28;20484;-77
2021/03/16 02:23:25;;;;;;;6.07;4.97;;;4.10;99.90;;;;;;5015021;28;20481;-77
2021/03/16 02:26:28;;;;;;;6.90;6.20;;;4.10;99.90;;;;;;5015216;28;20796;-76
2021/03/16 02:29:17;;;;;;;6.47;5.97;;;4.00;99.90;;;;;;5015307;28;20429;-77
2021/03/16 02:32:05;;;;;;;8.73;6.80;;;4.00;99.90;;;;;;5015358;28;20487;-76
2021/03/16 02:34:54;;;;;;;7.23;6.57;;;4.00;99.90;;;;;;5009225;28;20450;-77
2021/03/16 02:37:42;;;;;;;6.63;6.00;;;4.00;99.90;;;;;;5007804;28;20478;-77
2021/03/16 02:40:28;;;;;;;7.73;6.50;;;4.00;99.90;;;;;;5015026;28;20446;-77
2021/03/16 02:43:13;;;;;;;7.10;6.07;;;4.00;99.90;;;;;;5015006;28;20486;-77
2021/03/16 02:46:02;;;;;;;6.17;5.57;;;4.00;99.90;;;;;;5014919;28;20438;-77
2021/03/16 02:48:47;;;;;;;8.47;7.20;;;4.00;99.90;;;;;;5008673;28;20514;-77
2021/03/16 02:51:32;;;;;;;9.73;8.80;;;4.00;99.90;;;;;;5014708;28;20459;-77
2021/03/16 02:54:19;;;;;;;9.20;8.40;;;3.90;99.90;;;;;;5014914;28;20461;-78
2021/03/16 02:57:05;;;;;;;9.93;8.97;;;3.90;99.90;;;;;;5014683;28;20437;-77
2021/03/16 02:59:52;;;;;;;9.40;8.60;;;3.90;99.90;;;;;;5009094;28;20786;-77
2021/03/16 03:02:39;;;;;;;9.47;8.07;;;3.90;99.90;;;;;;5007311;28;20558;-77
2021/03/16 03:05:25;;;;;;;13.43;12.23;;;4.00;99.90;;;;;;5014280;28;20438;-77
2021/03/16 03:08:11;;;;;;;8.43;7.63;;;3.90;99.90;;;;;;5014397;28;20430;-77
2021/03/16 03:10:57;;;;;;;5.77;4.27;;;4.00;99.90;;;;;;5007051;28;20813;-78
2021/03/16 03:13:42;;;;;;;7.43;4.67;;;3.90;99.90;;;;;;5007433;28;20873;-76
2021/03/16 03:16:27;;;;;;;7.87;4.77;;;3.90;99.90;;;;;;5014313;28;20438;-77
2021/03/16 03:19:13;;;;;;;6.23;4.20;;;3.90;99.90;;;;;;5011666;28;20512;-77
2021/03/16 03:22:03;;;;;;;4.27;3.93;;;3.90;99.90;;;;;;5009577;28;20482;-77
2021/03/16 03:24:56;;;;;;;4.70;4.30;;;3.90;99.90;;;;;;5007940;28;20473;-76
2021/03/16 03:27:47;;;;;;;4.80;4.23;;;3.90;99.90;;;;;;5007557;28;20786;-77
2021/03/16 03:30:32;;;;;;;5.23;4.73;;;3.90;99.90;;;;;;5013065;28;20430;-77
2021/03/16 03:33:20;;;;;;;5.20;4.70;;;3.90;99.90;;;;;;5012036;28;20443;-78
2021/03/16 03:36:07;;;;;;;5.77;5.27;;;3.90;99.90;;;;;;5010538;28;20463;-77
2021/03/16 03:38:54;;;;;;;5.60;4.50;;;3.90;99.90;;;;;;5008993;28;20435;-77
2021/03/16 03:41:39;;;;;;;7.87;5.00;;;3.90;99.90;;;;;;5007117;28;20435;-77
2021/03/16 03:44:26;;;;;;;10.83;5.37;;;3.90;99.90;;;;;;5016029;28;20545;-77
2021/03/16 03:47:12;;;;;;;6.77;4.57;;;3.90;99.90;;;;;;5016829;28;20486;-77
2021/03/16 03:49:59;;;;;;;5.53;4.87;;;3.90;99.90;;;;;;5013384;28;20439;-77
2021/03/16 03:52:45;;;;;;;6.30;4.50;;;3.90;99.90;;;;;;5011383;28;20491;-76
2021/03/16 03:55:31;;;;;;;8.50;5.13;;;3.90;99.90;;;;;;5013677;28;20425;-77
2021/03/16 03:58:17;;;;;;;6.90;5.00;;;3.80;99.90;;;;;;5006566;28;20463;-74
2021/03/16 04:01:02;;;;;;;5.53;4.90;;;3.80;99.90;;;;;;5013523;28;20441;-74
2021/03/16 04:03:48;;;;;;;6.33;5.73;;;3.80;99.90;;;;;;5006236;28;20559;-75
2021/03/16 04:06:33;;;;;;;8.53;6.33;;;3.80;99.90;;;;;;5012273;28;20430;-75
2021/03/16 04:09:19;;;;;;;6.37;5.77;;;3.80;99.90;;;;;;5012783;28;20518;-75
2021/03/16 04:12:05;;;;;;;7.40;6.27;;;3.80;99.90;;;;;;5012490;28;20478;-74
2021/03/16 04:14:50;;;;;;;6.63;6.03;;;3.80;99.90;;;;;;5011856;28;20461;-76
2021/03/16 04:17:36;;;;;;;7.40;5.90;;;3.70;99.90;;;;;;5005444;28;20489;-76
2021/03/16 04:20:21;;;;;;;7.53;5.90;;;3.70;99.90;;;;;;5012767;28;20438;-76
2021/03/16 04:23:06;;;;;;;7.20;5.60;;;3.70;99.90;;;;;;5012501;28;21045;-74
2021/03/16 04:25:52;;;;;;;6.53;5.00;;;3.70;99.90;;;;;;5007128;28;20510;-75
2021/03/16 04:28:36;;;;;;;7.27;5.03;;;3.70;99.90;;;;;;5010677;28;20431;-75
2021/03/16 04:31:21;;;;;;;5.97;5.27;;;3.70;99.90;;;;;;5011465;28;20433;-75
2021/03/16 04:34:06;;;;;;;7.00;4.90;;;3.70;99.90;;;;;;5012333;28;20479;-75
2021/03/16 04:36:50;;;;;;;5.30;4.80;;;3.70;99.90;;;;;;5012189;28;20429;-75
2021/03/16 04:39:35;;;;;;;6.07;4.53;;;3.70;99.90;;;;;;5005099;28;20485;-76
2021/03/16 04:42:21;;;;;;;7.00;4.90;;;3.80;99.90;;;;;;5014550;28;20506;-77
2021/03/16 04:45:07;;;;;;;7.70;5.20;;;3.70;99.90;;;;;;5012465;28;20513;-76
2021/03/16 04:47:53;;;;;;;6.43;4.50;;;3.80;99.90;;;;;;5007251;28;20454;-76
2021/03/16 04:50:37;;;;;;;8.60;4.70;;;3.80;99.90;;;;;;5008282;28;21065;-78
2021/03/16 04:53:22;;;;;;;5.60;4.30;;;3.80;99.90;;;;;;5013723;28;20842;-77
2021/03/16 04:56:07;;;;;;;5.77;4.40;;;3.80;99.90;;;;;;5013153;28;20493;-78
2021/03/16 04:58:52;;;;;;;9.17;4.27;;;3.80;99.90;;;;;;5013916;28;20453;-77
2021/03/16 05:01:38;;;;;;;6.70;3.90;;;3.80;99.90;;;;;;5012210;28;20432;-77
2021/03/16 05:04:23;;;;;;;5.80;3.90;;;3.80;99.90;;;;;;5011623;28;20443;-77
2021/03/16 05:07:07;;;;;;;6.63;4.40;;;3.90;99.90;;;;;;5011643;28;20474;-77
2021/03/16 05:09:52;;;;;;;5.07;3.70;;;3.90;99.90;;;;;;5009774;28;20426;-76
2021/03/16 05:12:37;;;;;;;4.40;4.00;;;3.90;99.90;;;;;;5010008;28;20427;-76
2021/03/16 05:15:23;;;;;;;8.43;4.30;;;3.90;99.90;;;;;;5011391;28;20535;-75
2021/03/16 05:18:07;;;;;;;4.73;3.70;;;3.90;99.90;;;;;;5011611;28;20908;-76
2021/03/16 05:20:52;;;;;;;5.97;3.87;;;3.90;99.90;;;;;;5011066;28;20450;-75
2021/03/16 05:23:37;;;;;;;4.23;3.80;;;3.90;99.90;;;;;;5004482;28;20492;-76
2021/03/16 05:26:22;;;;;;;7.80;4.10;;;3.90;99.90;;;;;;5011780;28;20457;-77
2021/03/16 05:29:07;;;;;;;4.77;3.40;;;3.80;99.90;;;;;;5012122;28;20451;-76
2021/03/16 05:31:53;;;;;;;5.43;4.33;;;3.80;99.90;;;;;;5011606;28;20522;-75
2021/03/16 05:34:38;;;;;;;8.07;4.13;;;3.80;99.90;;;;;;5010154;28;20862;-76
2021/03/16 05:37:22;;;;;;;5.63;3.90;;;3.80;99.90;;;;;;5012502;28;20438;-76
2021/03/16 05:40:08;;;;;;;5.77;4.17;;;3.80;99.90;;;;;;5012691;28;20446;-77
2021/03/16 05:42:53;;;;;;;5.50;3.87;;;3.80;99.90;;;;;;5006007;28;20631;-76
2021/03/16 05:45:39;;;;;;;7.30;4.23;;;3.80;99.90;;;;;;5012066;28;20429;-77
2021/03/16 05:48:25;;;;;;;6.43;4.00;;;3.90;99.90;;;;;;5012869;28;20804;-78
2021/03/16 05:51:10;;;;;;;7.47;4.00;;;3.80;99.90;;;;;;5011732;28;21018;-78
2021/03/16 05:53:55;;;;;;;6.50;4.03;;;3.80;99.90;;;;;;5016790;28;20539;-77
2021/03/16 05:56:40;;;;;;;6.57;3.80;;;3.80;99.90;;;;;;5012500;28;20811;-78
2021/03/16 05:59:26;;;;;;;7.77;3.93;;;3.80;99.90;;;;;;5016495;28;20465;-78
2021/03/16 06:02:11;;;;;;;5.63;4.07;;;3.80;99.90;;;;;;5016431;28;20434;-76
2021/03/16 06:04:57;;;;;;;4.53;4.07;;;3.80;99.90;;;;;;5016342;28;20809;-78
2021/03/16 06:07:48;;;;;;;6.47;4.43;;;3.90;99.90;;;;;;5009009;28;20438;-78
2021/03/16 06:10:34;;;;;;;9.83;3.73;;;3.90;99.90;;;;;;5015879;28;20434;-79
2021/03/16 06:13:18;;;;;;;3.60;3.30;;;3.90;99.90;;;;;;5018133;28;20536;-79
2021/03/16 06:16:12;;;;;;;3.70;3.40;;;3.90;99.90;;;;;;5018987;28;20450;-79
2021/03/16 06:18:57;;;;;;;4.77;3.40;;;4.00;99.90;;;;;;5014463;28;20438;-79
2021/03/16 06:21:42;;;;;;;6.90;3.53;;;4.00;99.90;;;;;;5013253;28;20438;-79
2021/03/16 06:24:27;;;;;;;11.93;4.40;;;4.00;99.90;;;;;;5019409;28;20537;-79
2021/03/16 06:27:23;;;;;;;4.27;3.63;;;4.00;99.90;;;;;;5019205;28;20450;-79
2021/03/16 06:30:09;;;;;;;7.43;4.00;;;4.00;99.90;;;;;;5018804;28;20529;-78
2021/03/16 06:32:54;;;;;;;7.17;3.70;;;4.00;99.90;;;;;;5013601;28;20923;-78
2021/03/16 06:35:40;;;;;;;6.93;3.57;;;4.00;99.90;;;;;;5016750;28;20864;-78
2021/03/16 06:38:26;;;;;;;5.10;3.67;;;4.10;99.90;;;;;;5017621;28;20444;-78
2021/03/16 06:41:13;;;;;;;7.13;3.80;;;4.10;99.90;;;;;;5014525;28;20432;-78
2021/03/16 06:44:00;;;;;;;5.17;3.97;;;4.10;99.90;;;;;;5019151;28;20578;-78
2021/03/16 06:46:53;;;;;;;7.13;4.17;;;4.10;99.90;;;;;;5013325;28;20442;-78
2021/03/16 06:49:41;;;;;;;8.03;4.00;;;4.00;99.90;;;;;;5016993;28;20838;-79
2021/03/16 06:52:26;;;;;;;4.43;3.90;;;4.10;99.90;;;;;;5018413;28;20976;-79
2021/03/16 06:55:14;;;;;;;6.33;3.40;;;4.10;99.90;;;;;;5013957;28;20554;-79
2021/03/16 06:58:06;;;;;;;4.00;3.50;;;4.10;99.90;;;;;;5017321;28;20562;-79
2021/03/16 07:00:51;;;;;;;8.53;3.40;;;4.20;99.90;;;;;;5011422;28;20434;-79
2021/03/16 07:03:37;;;;;;;5.80;3.77;;;4.20;99.90;;;;;;5015911;28;20851;-79
2021/03/16 07:06:22;;;;;;;3.53;3.23;;;4.20;99.90;;;;;;5016627;28;20445;-80
2021/03/16 07:09:10;;;;;;;5.20;3.57;;;4.20;99.90;;;;;;5013992;28;20222;-78
2021/03/16 07:11:58;;;;;;;5.60;3.83;;;4.30;99.90;;;;;;5011851;28;20519;-79
2021/03/16 07:14:43;;;;;;;5.87;3.50;;;4.30;99.90;;;;;;5010819;28;20525;-79
2021/03/16 07:17:29;;;;;;;11.60;3.50;;;4.40;99.90;;;;;;5016554;28;20888;-79
2021/03/16 07:20:16;;;;;;;4.27;3.77;;;4.40;99.90;;;;;;5015796;28;20481;-79
2021/03/16 07:23:02;;;;;;;5.77;3.73;;;4.40;99.90;;;;;;5015497;28;20914;-79
2021/03/16 07:25:48;;;;;;;5.67;3.40;;;4.40;99.90;;;;;;5015386;28;20816;-79
2021/03/16 07:28:34;;;;;;;4.60;3.17;;;4.40;99.90;;;;;;5018540;28;21049;-79
2021/03/16 07:31:19;;;;;;;5.30;3.50;;;4.40;99.90;;;;;;5013659;28;20430;-79
2021/03/16 07:34:05;;;;;;;5.10;3.47;;;4.50;99.90;;;;;;5016314;28;20459;-79
2021/03/16 07:36:53;;;;;;;10.07;4.37;;;4.50;99.90;;;;;;5009623;28;20208;-79
2021/03/16 07:39:38;;;;;;;5.73;4.13;;;4.50;99.90;;;;;;5007670;28;20215;-79
2021/03/16 07:42:23;;;;;;;5.93;3.57;;;4.50;99.90;;;;;;5015276;28;20434;-79
2021/03/16 07:45:10;;;;;;;4.33;3.70;;;4.50;99.90;;;;;;5015395;28;20470;-78
2021/03/16 07:47:55;;;;;;;6.70;3.50;;;4.50;99.90;;;;;;5015889;28;20431;-78
2021/03/16 07:50:40;;;;;;;4.20;3.60;;;4.60;99.90;;;;;;5008587;28;20477;-79
2021/03/16 07:53:25;;;;;;;6.73;3.70;;;4.60;99.90;;;;;;5015102;28;20894;-79
2021/03/16 07:56:13;;;;;;;6.27;3.47;;;4.60;99.90;;;;;;5014514;28;20434;-79
2021/03/16 07:58:58;;;;;;;6.73;6.13;;;4.70;99.90;;;;;;5014858;28;20211;-77
2021/03/16 08:01:48;;;;;;;5.17;3.80;;;4.80;99.90;;;;;;5008499;28;20430;-79
2021/03/16 08:04:34;;;;;;;3.83;3.43;;;4.80;99.90;;;;;;5015123;28;20914;-80
2021/03/16 08:07:22;;;;;;;7.60;3.83;;;4.80;99.90;;;;;;5014371;28;20427;-80
2021/03/16 08:10:08;;;;;;;4.80;4.27;;;4.90;99.90;;;;;;5010665;28;20516;-79
2021/03/16 08:13:00;;;;;;;4.97;4.10;;;5.00;99.90;;;;;;5005642;28;20475;-79
2021/03/16 08:15:46;;;;;;;5.27;3.27;;;5.20;99.90;;;;;;5006901;28;20425;-79
2021/03/16 08:18:34;;;;;;;5.20;3.50;;;5.30;99.90;;;;;;5013873;28;20228;-79
2021/03/16 08:21:20;;;;;;;6.60;4.03;;;5.40;99.90;;;;;;5013648;28;20208;-79
2021/03/16 08:24:06;;;;;;;5.43;3.90;;;5.50;99.90;;;;;;5009747;28;20224;-79
2021/03/16 08:26:53;;;;;;;7.50;6.17;;;5.60;99.90;;;;;;5007861;28;20741;-79
2021/03/16 08:29:42;;;;;;;6.13;3.83;;;5.60;99.90;;;;;;5013771;28;20704;-79
2021/03/16 08:32:29;;;;;;;6.97;4.17;;;5.80;99.90;;;;;;5013355;28;20255;-79
2021/03/16 08:35:17;;;;;;;8.47;7.17;;;5.90;99.90;;;;;;5012773;28;20690;-79
2021/03/16 08:38:02;;;;;;;8.27;4.70;;;5.90;99.90;;;;;;5012832;28;20661;-79
2021/03/16 08:40:48;;;;;;;6.23;3.87;;;6.10;99.90;;;;;;5008864;28;20573;-79
2021/03/16 08:43:34;;;;;;;5.23;3.33;;;6.30;99.90;;;;;;5006489;28;20227;-79
2021/03/16 08:46:33;;;;;;;4.97;3.80;;;6.40;99.90;;;;;;5009940;28;20216;-79
2021/03/16 08:49:19;;;;;;;9.13;3.43;;;6.50;99.90;;;;;;5014593;28;20263;-79
2021/03/16 08:52:14;;;;;;;5.83;3.93;;;6.60;99.90;;;;;;5014653;28;20243;-79
2021/03/16 08:55:01;;;;;;;7.50;3.30;;;6.70;99.90;;;;;;5014379;28;20601;-78
2021/03/16 08:57:46;;;;;;;7.60;2.87;;;6.90;99.90;;;;;;5013242;28;20213;-79
2021/03/16 09:00:31;;;;;;;6.63;3.40;;;7.00;99.90;;;;;;5014645;28;20216;-79
2021/03/16 09:03:16;;;;;;;6.87;3.17;;;7.10;99.90;;;;;;5015778;28;20308;-79
2021/03/16 09:06:01;;;;;;;4.73;3.67;;;7.10;99.90;;;;;;5010253;28;20211;-80
2021/03/16 09:08:51;;;;;;;4.60;3.80;;;7.00;99.90;;;;;;5008332;28;20213;-79
2021/03/16 09:11:41;;;;;;;5.87;4.00;;;6.90;99.90;;;;;;5006595;28;20209;-79
2021/03/16 09:14:26;;;;;;;5.63;4.23;;;6.90;99.90;;;;;;5014447;28;20225;-79
2021/03/16 09:17:11;;;;;;;4.57;4.03;;;6.80;99.90;;;;;;5014275;28;20250;-79
2021/03/16 09:19:55;;;;;;;4.53;3.23;;;6.70;99.90;;;;;;5009703;28;20758;-79
2021/03/16 09:22:41;;;;;;;8.13;4.23;;;6.70;99.90;;;;;;5007223;28;20205;-79
2021/03/16 09:25:28;;;;;;;6.67;3.60;;;6.70;99.90;;;;;;5014089;28;20225;-79
2021/03/16 09:28:15;;;;;;;4.67;3.67;;;6.70;99.90;;;;;;5012502;28;20229;-75
2021/03/16 09:31:00;;;;;;;5.20;3.57;;;6.60;99.90;;;;;;5015286;28;20270;-77
2021/03/16 09:33:45;;;;;;;9.60;8.40;;;6.40;99.90;;;;;;5010698;28;20239;-76
2021/03/16 09:36:30;;;;;;;9.07;8.17;;;6.30;99.90;;;;;;5021266;28;20244;-79
2021/03/16 09:39:20;;;;;;;9.60;8.63;;;6.30;99.90;;;;;;4978779;28;20271;-78
2021/03/16 09:42:01;;;;;;;9.20;8.43;;;6.40;99.90;;;;;;4999058;28;20201;-79
2021/03/16 09:44:34;;;;;;;9.60;8.80;;;6.50;99.90;;;;;;4997946;28;20229;-80
2021/03/16 09:47:01;;;;;;;11.10;9.83;;;6.50;99.90;;;;;;4999911;28;20272;-79
2021/03/16 09:49:32;;;;;;;10.80;9.70;;;6.50;99.90;;;;;;5018334;28;20229;-78
2021/03/16 09:52:10;;;;;;;6.47;4.00;;;6.60;99.90;;;;;;4996686;28;20200;-79
2021/03/16 09:54:39;;;;;;;8.77;3.77;;;6.70;99.90;;;;;;4975692;28;20805;-78
2021/03/16 09:57:08;;;;;;;4.97;2.97;;;6.80;99.90;;;;;;5009842;28;20262;-79
2021/03/16 09:59:38;;;;;;;6.57;3.93;;;6.70;99.90;;;;;;5011350;28;20658;-79
2021/03/16 10:02:06;;;;;;;5.50;3.40;;;6.50;99.90;;;;;;5013538;28;20197;-80
2021/03/16 10:04:49;;;;;;;7.00;3.83;;;6.50;99.90;;;;;;5012451;28;20220;-79
2021/03/16 10:07:24;;;;;;;6.20;3.83;;;6.60;99.90;;;;;;5011717;28;20193;-77
2021/03/16 10:09:51;;;;;;;8.73;3.73;;;6.60;99.90;;;;;;5011251;28;20249;-78
2021/03/16 10:12:19;;;;;;;5.17;3.63;;;6.50;99.90;;;;;;5011174;28;20197;-78
2021/03/16 10:14:49;;;;;;;3.53;3.20;;;6.50;99.90;;;;;;5011643;28;20215;-78
2021/03/16 10:17:23;;;;;;;8.20;5.07;;;6.40;99.90;;;;;;5012599;28;20723;-76
2021/03/16 10:19:53;;;;;;;7.70;4.57;;;6.20;99.90;;;;;;5010603;28;20479;-78
2021/03/16 10:22:19;;;;;;;7.13;3.90;;;6.00;99.90;;;;;;4990376;28;20279;-77
2021/03/16 10:24:54;;;;;;;9.37;3.77;;;5.90;99.90;;;;;;5008207;28;20225;-77
2021/03/16 10:27:26;;;;;;;5.97;3.63;;;5.80;99.90;;;;;;5007719;28;20210;-77
2021/03/16 10:29:53;;;;;;;4.93;3.50;;;5.90;99.90;;;;;;4999349;28;20193;-78
2021/03/16 10:32:19;;;;;;;3.70;3.30;;;6.00;99.90;;;;;;4984327;28;20272;-77
2021/03/16 10:34:46;;;;;;;5.57;4.93;;;6.30;99.90;;;;;;4991752;28;20224;-78
2021/03/16 10:37:20;;;;;;;7.33;3.63;;;6.50;99.90;;;;;;4987570;28;20197;-78
2021/03/16 10:39:47;;;;;;;5.40;3.00;;;6.70;99.90;;;;;;4981013;28;20336;-79
2021/03/16 10:42:13;;;;;;;6.13;5.03;;;6.90;99.90;;;;;;5008493;28;20581;-78
2021/03/16 10:44:41;;;;;;;4.60;3.53;;;7.20;99.90;;;;;;5007183;28;20221;-79
2021/03/16 10:47:08;;;;;;;4.57;3.93;;;7.30;99.90;;;;;;5009008;28;20618;-78
2021/03/16 10:49:34;;;;;;;6.33;3.40;;;7.50;99.90;;;;;;4979820;28;20238;-78
2021/03/16 10:52:01;;;;;;;6.67;3.40;;;7.50;99.90;;;;;;5005710;28;20211;-78
2021/03/16 10:54:28;;;;;;;4.70;3.67;;;7.50;99.90;;;;;;5005758;28;20209;-78
2021/03/16 10:56:55;;;;;;;5.00;3.60;;;7.40;99.90;;;;;;4990234;28;20283;-78
2021/03/16 10:59:22;;;;;;;7.07;3.57;;;7.40;99.90;;;;;;4982710;28;20518;-78
2021/03/16 11:01:49;;;;;;;4.90;3.23;;;7.40;99.90;;;;;;4979276;28;20220;-78
2021/03/16 11:04:17;;;;;;;6.27;3.60;;;7.30;99.90;;;;;;4994450;28;20227;-78
2021/03/16 11:06:44;;;;;;;4.63;3.23;;;7.30;99.90;;;;;;4996137;28;20202;-78
2021/03/16 11:09:11;;;;;;;7.47;3.60;;;7.20;99.90;;;;;;4977421;28;20748;-77
2021/03/16 11:11:37;;;;;;;7.47;4.20;;;7.10;99.90;;;;;;4998483;28;20207;-78
2021/03/16 11:14:04;;;;;;;7.50;5.67;;;7.00;99.90;;;;;;5003762;28;20226;-80
2021/03/16 11:16:30;;;;;;;6.33;5.73;;;6.70;99.90;;;;;;5004884;28;20198;-78
2021/03/16 11:18:57;;;;;;;8.90;3.97;;;6.40;99.90;;;;;;4997553;28;20207;-79
2021/03/16 11:21:24;;;;;;;5.57;4.63;;;6.40;99.90;;;;;;4989968;28;20676;-79
2021/03/16 11:23:50;;;;;;;5.10;4.60;;;6.40;99.90;;;;;;4998106;28;20284;-79
2021/03/16 11:26:17;;;;;;;7.10;4.07;;;6.50;99.90;;;;;;4994055;28;20199;-78
2021/03/16 11:28:43;;;;;;;8.23;4.57;;;6.50;99.90;;;;;;4994735;28;20281;-78
2021/03/16 11:31:11;;;;;;;7.80;4.40;;;6.60;99.90;;;;;;4994467;28;20202;-78
2021/03/16 11:33:42;;;;;;;6.83;4.60;;;6.70;99.90;;;;;;4994513;28;20222;-78
2021/03/16 11:36:28;;;;;;;4.83;3.97;;;6.80;99.90;;;;;;4994156;28;20219;-79
2021/03/16 11:39:13;;;;;;;6.30;4.30;;;6.90;99.90;;;;;;4994116;28;20210;-78
2021/03/16 11:41:58;;;;;;;7.40;4.13;;;6.70;99.90;;;;;;4994414;28;20259;-78
2021/03/16 11:44:43;;;;;;;7.13;4.20;;;6.80;99.90;;;;;;4987137;28;20242;-78
2021/03/16 11:47:28;;;;;;;6.67;4.60;;;6.90;99.90;;;;;;4993415;28;20794;-77
2021/03/16 11:50:13;;;;;;;8.60;4.00;;;7.10;99.90;;;;;;4993175;28;20209;-78
2021/03/16 11:52:59;;;;;;;6.23;3.70;;;7.40;99.90;;;;;;4993765;28;20250;-78
2021/03/16 11:55:44;;;;;;;4.53;3.47;;;7.50;99.90;;;;;;4993084;28;20252;-78
2021/03/16 11:58:32;;;;;;;5.03;3.33;;;7.80;99.90;;;;;;4993849;28;20260;-77
2021/03/16 12:01:16;;;;;;;5.63;3.47;;;8.00;99.90;;;;;;4993731;28;20284;-79
2021/03/16 12:04:01;;;;;;;5.97;3.63;;;8.10;99.90;;;;;;4993298;28;20250;-78
2021/03/16 12:06:46;;;;;;;5.43;3.40;;;8.10;99.90;;;;;;4987351;28;20257;-78
2021/03/16 12:09:32;;;;;;;5.33;3.40;;;8.00;99.90;;;;;;4993707;28;20262;-80
2021/03/16 12:12:17;;;;;;;4.93;3.60;;;7.80;99.90;;;;;;4994464;28;20211;-77
2021/03/16 12:15:03;;;;;;;7.40;3.70;;;7.70;99.90;;;;;;4995005;28;20223;-78
2021/03/16 12:17:48;;;;;;;8.23;4.13;;;7.50;99.90;;;;;;4990595;28;20257;-78
2021/03/16 12:20:33;;;;;;;7.20;3.90;;;7.40;99.90;;;;;;4994133;28;20218;-80
2021/03/16 12:23:18;;;;;;;6.13;3.87;;;7.40;99.90;;;;;;4999140;28;20305;-78
2021/03/16 12:26:04;;;;;;;7.07;3.90;;;7.30;99.90;;;;;;4997490;28;20218;-80
2021/03/16 12:28:49;;;;;;;6.70;3.60;;;7.40;99.90;;;;;;4990125;28;20238;-79
2021/03/16 12:31:35;;;;;;;4.47;3.30;;;7.40;99.90;;;;;;4994588;28;20646;-79
2021/03/16 12:34:19;;;;;;;6.00;3.40;;;7.60;99.90;;;;;;4994222;28;20221;-80
2021/03/16 12:37:05;;;;;;;7.43;3.40;;;7.60;99.90;;;;;;4993310;28;20294;-78
2021/03/16 12:39:50;;;;;;;7.73;3.43;;;7.60;99.90;;;;;;4993613;28;20206;-78
2021/03/16 12:42:36;;;;;;;5.87;3.40;;;7.50;99.90;;;;;;4994222;28;20248;-79
2021/03/16 12:45:22;;;;;;;8.73;3.10;;;7.40;99.90;;;;;;4993275;28;20261;-79
2021/03/16 12:48:07;;;;;;;3.00;2.80;;;7.40;99.90;;;;;;4994644;28;20238;-79
2021/03/16 12:50:53;;;;;;;4.30;2.60;;;7.50;99.90;;;;;;4992050;28;20211;-78
2021/03/16 12:53:38;;;;;;;5.47;3.17;;;7.60;99.90;;;;;;4994510;28;20235;-79
2021/03/16 12:56:23;;;;;;;4.03;3.10;;;7.80;99.90;;;;;;4994445;28;20294;-79
2021/03/16 12:59:08;;;;;;;6.93;3.17;;;8.10;99.90;;;;;;4994939;28;20237;-79
2021/03/16 13:01:56;;;;;;;5.20;3.37;;;8.20;99.90;;;;;;4991293;28;20203;-79
2021/03/16 13:04:41;;;;;;;5.97;3.53;;;8.30;99.90;;;;;;4986916;28;20252;-79
2021/03/16 13:07:26;;;;;;;7.03;3.10;;;8.20;99.90;;;;;;4992675;28;20218;-79
2021/03/16 13:10:12;;;;;;;4.90;3.10;;;8.10;99.90;;;;;;4996049;28;20257;-79
2021/03/16 13:12:56;;;;;;;5.60;3.40;;;7.90;99.90;;;;;;4993821;28;20391;-79
2021/03/16 13:15:42;;;;;;;4.83;3.40;;;7.90;99.90;;;;;;5000090;28;20214;-79
2021/03/16 13:18:27;;;;;;;4.43;3.40;;;7.90;99.90;;;;;;4993472;28;20206;-80
2021/03/16 13:21:12;;;;;;;5.40;3.23;;;7.90;99.90;;;;;;4994691;28;20215;-78
2021/03/16 13:23:57;;;;;;;4.20;3.23;;;7.90;99.90;;;;;;5005756;28;20229;-77
2021/03/16 13:26:42;;;;;;;6.53;3.07;;;8.00;99.90;;;;;;5012702;28;20253;-79
2021/03/16 13:29:27;;;;;;;3.93;2.80;;;8.10;99.90;;;;;;5011722;28;20216;-77
2021/03/16 13:32:13;;;;;;;6.70;3.13;;;8.10;99.90;;;;;;5015192;28;20210;-79
2021/03/16 13:34:57;;;;;;;3.67;3.03;;;8.00;99.90;;;;;;5012880;28;20743;-79
2021/03/16 13:37:42;;;;;;;3.67;2.67;;;8.00;99.90;;;;;;5012734;28;20293;-78
2021/03/16 13:40:27;;;;;;;4.97;3.27;;;8.10;99.90;;;;;;5014708;28;20218;-79
2021/03/16 13:43:12;;;;;;;5.17;2.80;;;8.30;99.90;;;;;;5014420;28;20651;-79
2021/03/16 13:45:57;;;;;;;5.43;3.10;;;8.40;99.90;;;;;;5012792;28;20634;-79
2021/03/16 13:48:43;;;;;;;2.77;2.57;;;8.30;99.90;;;;;;5013388;28;20210;-82
2021/03/16 13:51:28;;;;;;;4.73;2.70;;;8.50;99.90;;;;;;5014239;28;21479;-81
2021/03/16 13:54:12;;;;;;;7.43;3.30;;;8.60;99.90;;;;;;5014712;28;20290;-78
2021/03/16 13:56:58;;;;;;;5.30;2.73;;;8.60;99.90;;;;;;5015239;28;20260;-79
2021/03/16 13:59:43;;;;;;;3.53;2.90;;;8.60;99.90;;;;;;5010445;28;20581;-78
2021/03/16 14:02:28;;;;;;;7.87;4.70;;;8.70;99.90;;;;;;5012266;28;20278;-77
2021/03/16 14:05:14;;;;;;;3.30;2.73;;;8.70;99.90;;;;;;5011645;28;20732;-79
2021/03/16 14:07:59;;;;;;;3.67;3.17;;;8.90;99.90;;;;;;5012404;28;20764;-78
2021/03/16 14:10:43;;;;;;;6.37;3.30;;;8.90;99.90;;;;;;5005758;28;20211;-79